createdAt,value
2023-04-14T08:42:03.895Z,43.20
2023-04-14T09:35:22.037Z,48.70
2023-04-14T09:38:36.577Z,48.12
2023-04-14T09:41:47.508Z,47.62
2023-04-14T09:44:54.399Z,47.84
2023-04-14T09:48:07.479Z,47.17
2023-04-14T09:51:10.709Z,46.65
2023-04-14T09:54:23.500Z,46.15
2023-04-14T09:57:26.752Z,46.26
2023-04-14T10:00:31.796Z,46.14
2023-04-14T10:03:45.983Z,45.92
2023-04-14T10:06:48.767Z,45.59
2023-04-14T10:09:51.522Z,45.99
2023-04-14T10:12:54.777Z,45.87
2023-04-14T10:15:57.521Z,45.82
2023-04-14T10:19:00.752Z,46.00
2023-04-14T10:22:06.021Z,46.15
2023-04-14T10:25:10.174Z,46.13
2023-04-14T10:28:13.205Z,46.26
2023-04-14T10:31:30.505Z,46.56
2023-04-14T10:34:34.486Z,47.00
2023-04-14T10:37:37.328Z,47.21
2023-04-14T10:40:52.584Z,47.54
2023-04-14T10:43:55.153Z,47.55
2023-04-14T10:47:02.303Z,47.85
2023-04-14T10:50:20.244Z,49.75
2023-04-14T10:53:29.234Z,50.52
2023-04-14T10:56:31.674Z,51.64
2023-04-14T10:59:34.407Z,51.66
2023-04-14T11:02:37.106Z,52.39
2023-04-14T11:05:44.362Z,52.71
2023-04-14T11:08:50.222Z,52.79
2023-04-14T11:11:55.494Z,52.87
2023-04-14T11:15:04.327Z,53.54
2023-04-14T11:18:15.563Z,54.61
2023-04-14T11:21:18.236Z,55.43
2023-04-14T11:24:25.608Z,57.70
2023-04-14T11:27:28.054Z,59.46
2023-04-14T11:30:31.532Z,60.99
2023-04-14T11:33:35.939Z,62.55
2023-04-14T11:36:39.417Z,63.65
2023-04-14T11:39:42.875Z,67.34
2023-04-14T11:42:47.222Z,70.50
2023-04-14T11:45:51.395Z,71.80
2023-04-14T11:48:58.102Z,73.21
2023-04-14T11:52:08.047Z,74.44
2023-04-14T11:55:10.659Z,76.15
2023-04-14T11:58:14.165Z,77.05
2023-04-14T12:01:22.931Z,77.76
2023-04-14T12:04:26.715Z,79.05
2023-04-14T12:07:31.085Z,78.83
2023-04-14T12:10:33.787Z,81.06
2023-04-14T12:13:41.521Z,81.15
2023-04-14T12:16:44.243Z,81.72
2023-04-14T12:19:46.732Z,83.22
2023-04-14T12:22:49.843Z,82.45
2023-04-14T12:25:52.987Z,81.89
2023-04-14T12:28:57.364Z,82.32
2023-04-14T12:31:59.902Z,83.10
2023-04-14T12:35:02.811Z,83.21
2023-04-14T12:38:15.030Z,85.95
2023-04-14T12:41:24.511Z,85.91
2023-04-14T12:44:27.084Z,84.61
2023-04-14T12:47:34.491Z,86.58
2023-04-14T12:50:37.054Z,87.00
2023-04-14T12:53:41.321Z,85.68
2023-04-14T12:56:43.689Z,86.47
2023-04-14T12:59:46.408Z,86.24
2023-04-14T13:02:49.936Z,86.14
2023-04-14T13:05:54.987Z,86.87
2023-04-14T13:08:58.382Z,86.93
2023-04-14T13:12:01.317Z,88.14
2023-04-14T13:15:04.457Z,89.97
2023-04-14T13:18:07.380Z,90.09
2023-04-14T13:21:10.314Z,88.40
2023-04-14T13:24:12.976Z,88.83
2023-04-14T13:27:15.697Z,87.78
2023-04-14T13:30:18.371Z,87.52
2023-04-14T13:33:22.085Z,86.92
2023-04-14T13:36:24.888Z,85.91
2023-04-14T13:39:27.355Z,83.78
2023-04-14T13:42:30.059Z,82.88
2023-04-14T13:45:32.865Z,81.75
2023-04-14T13:48:35.550Z,82.67
2023-04-14T13:51:39.892Z,82.95
2023-04-14T13:54:44.808Z,84.76
2023-04-14T13:57:47.128Z,83.42
2023-04-14T14:00:49.945Z,84.69
2023-04-14T14:03:52.932Z,85.10
2023-04-14T14:06:55.555Z,84.62
2023-04-14T14:09:58.179Z,83.71
2023-04-14T14:13:00.574Z,82.83
2023-04-14T14:16:03.929Z,81.14
2023-04-14T14:19:08.309Z,81.20
2023-04-14T14:22:11.178Z,81.30
2023-04-14T14:25:20.105Z,82.80
2023-04-14T14:28:23.876Z,82.43
2023-04-14T14:31:26.352Z,81.90
2023-04-14T14:34:29.052Z,81.71
2023-04-14T14:37:31.455Z,81.46
2023-04-14T14:40:34.107Z,81.03
2023-04-14T14:43:36.774Z,80.36
2023-04-14T14:46:39.484Z,78.65
2023-04-14T14:49:52.945Z,78.16
2023-04-14T14:53:02.634Z,78.79
2023-04-14T14:56:05.378Z,80.14
2023-04-14T14:59:11.143Z,79.92
2023-04-14T15:02:13.700Z,80.80
2023-04-14T15:05:16.998Z,81.12
2023-04-14T15:08:19.863Z,81.60
2023-04-14T15:11:23.060Z,79.50
2023-04-14T15:14:25.678Z,78.49
2023-04-14T15:17:28.588Z,78.72
2023-04-14T15:20:31.596Z,80.27
2023-04-14T15:23:37.161Z,80.42
2023-04-14T15:26:39.515Z,81.01
2023-04-14T15:29:42.161Z,81.88
2023-04-14T15:32:44.665Z,82.64
2023-04-14T15:35:47.403Z,83.34
2023-04-14T15:38:50.786Z,83.71
2023-04-14T15:41:53.438Z,84.23
2023-04-14T15:44:55.902Z,84.32
2023-04-14T15:47:58.539Z,84.44
2023-04-14T15:51:01.100Z,84.69
2023-04-14T15:54:04.238Z,84.69
2023-04-14T15:57:07.085Z,85.11
2023-04-14T16:00:10.321Z,85.71
2023-04-14T16:03:15.078Z,85.60
2023-04-14T16:06:17.982Z,85.59
2023-04-14T16:09:20.351Z,85.99
2023-04-14T16:12:23.350Z,85.54
2023-04-14T16:15:27.416Z,85.87
2023-04-14T16:18:30.055Z,85.92
2023-04-14T16:21:32.464Z,85.90
2023-04-14T16:24:35.172Z,86.18
2023-04-14T16:27:37.620Z,86.19
2023-04-14T16:30:40.971Z,86.34
2023-04-14T16:33:43.883Z,86.27
2023-04-14T16:36:47.023Z,86.65
2023-04-14T16:39:56.419Z,86.70
2023-04-14T16:42:59.070Z,86.92
2023-04-14T16:46:03.148Z,87.61
2023-04-14T16:49:07.813Z,87.37
2023-04-14T16:52:10.369Z,87.71
2023-04-14T16:55:15.730Z,87.91
2023-04-14T16:58:18.148Z,87.92
2023-04-14T17:01:21.159Z,87.61
2023-04-14T17:04:24.105Z,87.65
2023-04-14T17:07:27.124Z,87.71
2023-04-14T17:10:29.843Z,87.35
2023-04-14T17:13:32.510Z,86.91
2023-04-14T17:16:34.991Z,86.77
2023-04-14T17:19:37.842Z,86.81
2023-04-14T17:22:40.433Z,86.88
2023-04-14T17:25:45.104Z,87.54
2023-04-14T17:28:47.775Z,88.03
2023-04-14T17:31:50.684Z,87.82
2023-04-14T17:34:53.192Z,88.11
2023-04-14T17:37:56.647Z,87.93
2023-04-14T17:40:59.472Z,87.81
2023-04-14T17:44:02.399Z,87.96
2023-04-14T17:47:13.304Z,87.79
2023-04-14T17:50:16.891Z,87.72
2023-04-14T17:53:19.473Z,88.11
2023-04-14T17:56:22.583Z,88.53
2023-04-14T17:59:25.258Z,88.46
2023-04-14T18:02:30.777Z,89.02
2023-04-14T18:05:33.812Z,89.59
2023-04-14T18:08:36.156Z,90.37
2023-04-14T18:11:38.774Z,88.95
2023-04-14T18:14:41.648Z,88.09
2023-04-14T18:17:45.476Z,88.56
2023-04-14T18:20:50.928Z,89.12
2023-04-14T18:26:59.508Z,89.86
2023-04-14T18:30:03.045Z,90.04
2023-04-14T18:33:05.482Z,89.86
2023-04-14T18:36:08.352Z,90.17
2023-04-14T18:39:11.142Z,90.03
2023-04-14T18:42:15.481Z,90.55
2023-04-14T18:45:18.165Z,91.13
2023-04-14T18:48:20.924Z,91.28
2023-04-14T18:51:23.451Z,91.43
2023-04-14T18:54:26.514Z,91.40
2023-04-14T18:57:30.232Z,91.10
2023-04-14T19:00:33.690Z,91.12
2023-04-14T19:03:36.723Z,90.81
2023-04-14T19:06:40.485Z,91.14
2023-04-14T19:09:43.035Z,90.83
2023-04-14T19:12:46.201Z,91.56
2023-04-14T19:15:48.921Z,92.04
2023-04-14T19:18:52.481Z,91.81
2023-04-14T19:21:54.875Z,92.50
2023-04-14T19:24:57.710Z,92.76
2023-04-14T19:28:02.240Z,93.25
2023-04-14T19:31:05.020Z,92.89
2023-04-14T19:34:07.452Z,94.06
2023-04-14T19:37:11.119Z,93.74
2023-04-14T19:40:14.000Z,93.45
2023-04-14T19:43:18.274Z,93.55
2023-04-14T19:46:21.044Z,93.46
2023-04-14T19:49:24.770Z,94.24
2023-04-14T19:52:27.172Z,93.86
2023-04-14T19:55:30.080Z,94.69
2023-04-14T19:58:33.006Z,94.93
2023-04-14T20:01:35.874Z,95.14
2023-04-14T20:04:39.362Z,95.64
2023-04-14T20:07:41.941Z,96.16
2023-04-14T20:10:44.775Z,95.99
2023-04-14T20:13:47.485Z,95.44
2023-04-14T20:16:51.147Z,95.34
2023-04-14T20:19:53.484Z,95.09
2023-04-14T20:22:58.688Z,94.69
2023-04-14T20:26:01.629Z,94.71
2023-04-14T20:29:05.439Z,94.66
2023-04-14T20:32:08.056Z,94.23
2023-04-14T20:35:11.358Z,93.71
2023-04-14T20:38:15.587Z,93.68
2023-04-14T20:41:18.602Z,93.64
2023-04-14T20:44:21.540Z,93.52
2023-04-14T20:47:24.567Z,93.39
2023-04-14T20:50:27.791Z,93.26
2023-04-14T20:53:30.463Z,93.15
2023-04-14T20:56:34.252Z,92.95
2023-04-14T20:59:37.690Z,93.09
2023-04-14T21:02:40.360Z,92.82
2023-04-14T21:05:43.360Z,92.74
2023-04-14T21:08:45.809Z,92.57
2023-04-14T21:11:48.435Z,92.46
2023-04-14T21:15:47.954Z,92.41
2023-04-14T21:18:33.948Z,92.05
2023-04-14T21:21:36.984Z,91.92
2023-04-14T21:24:39.666Z,91.91
2023-04-14T21:27:43.095Z,91.51
2023-04-14T21:30:45.719Z,91.36
2023-04-14T21:33:48.030Z,90.86
2023-04-14T21:36:50.779Z,90.27
2023-04-14T21:39:53.881Z,90.23
2023-04-14T21:42:56.751Z,90.07
2023-04-14T21:45:59.400Z,89.66
2023-04-14T21:49:02.520Z,89.87
2023-04-14T21:52:05.462Z,90.27
2023-04-14T21:55:09.279Z,91.14
2023-04-14T21:58:11.621Z,90.92
2023-04-14T22:01:14.290Z,91.30
2023-04-14T22:04:28.830Z,91.93
2023-04-14T22:07:38.097Z,92.05
2023-04-14T22:10:43.392Z,92.76
2023-04-14T22:13:45.847Z,93.29
2023-04-14T22:16:48.933Z,93.41
2023-04-14T22:19:51.473Z,94.02
2023-04-14T22:22:54.788Z,94.56
2023-04-14T22:25:57.520Z,94.68
2023-04-14T22:29:00.378Z,95.22
2023-04-14T22:32:03.004Z,94.81
2023-04-14T22:35:05.963Z,95.64
2023-04-14T22:38:08.479Z,96.15
2023-04-14T22:41:11.342Z,95.84
2023-04-14T22:44:13.989Z,96.16
2023-04-14T22:47:16.948Z,96.29
2023-04-14T22:50:19.552Z,96.66
2023-04-14T22:53:22.534Z,96.85
2023-04-14T22:56:25.145Z,97.06
2023-04-14T22:59:27.947Z,96.81
2023-04-14T23:02:30.511Z,97.07
2023-04-14T23:05:33.354Z,97.39
2023-04-14T23:08:35.879Z,97.50
2023-04-14T23:11:41.508Z,97.52
2023-04-14T23:14:44.099Z,97.31
2023-04-14T23:17:47.027Z,97.67
2023-04-14T23:20:49.671Z,97.93
2023-04-14T23:23:52.529Z,97.77
2023-04-14T23:26:54.966Z,97.38
2023-04-14T23:29:57.746Z,97.53
2023-04-14T23:33:00.253Z,97.56
2023-04-14T23:36:03.198Z,97.59
2023-04-14T23:39:05.848Z,97.39
2023-04-14T23:42:08.843Z,97.21
2023-04-14T23:45:11.216Z,97.06
2023-04-14T23:48:13.848Z,97.06
2023-04-14T23:51:17.321Z,96.77
2023-04-14T23:54:21.075Z,96.49
2023-04-14T23:57:24.652Z,96.50
